createdAt,value
2018-09-19T00:01:32.212Z,57.02
2018-09-19T00:06:35.332Z,57.47
2018-09-19T00:11:38.544Z,57.80
2018-09-19T00:16:41.560Z,57.77
2018-09-19T00:21:44.561Z,58.60
2018-09-19T00:26:47.577Z,58.79
2018-09-19T00:31:50.577Z,58.81
2018-09-19T00:36:53.926Z,59.25
2018-09-19T00:41:57.176Z,58.85
2018-09-19T00:47:00.365Z,58.97
2018-09-19T00:52:03.486Z,58.92
2018-09-19T00:57:06.573Z,58.70
2018-09-19T01:02:09.594Z,58.81
2018-09-19T01:07:12.629Z,59.36
2018-09-19T01:12:15.740Z,59.37
2018-09-19T01:17:18.818Z,59.12
2018-09-19T01:22:21.842Z,60.01
2018-09-19T01:27:25.310Z,59.66
2018-09-19T01:32:28.591Z,60.54
2018-09-19T01:37:31.923Z,60.69
2018-09-19T01:42:38.517Z,60.62
2018-09-19T01:47:41.554Z,61.31
2018-09-19T01:52:44.558Z,61.31
2018-09-19T01:57:47.621Z,61.30
2018-09-19T02:02:50.742Z,61.71
2018-09-19T02:07:53.819Z,61.82
2018-09-19T02:12:56.999Z,62.00
2018-09-19T02:18:00.071Z,61.58
2018-09-19T02:23:03.092Z,61.85
2018-09-19T02:28:06.261Z,61.79
2018-09-19T02:33:09.277Z,63.22
2018-09-19T02:38:13.103Z,62.87
2018-09-19T02:43:16.151Z,63.24
2018-09-19T02:48:19.156Z,63.14
2018-09-19T02:53:22.157Z,63.17
2018-09-19T02:58:25.254Z,63.06
2018-09-19T03:03:28.377Z,63.05
2018-09-19T03:08:33.679Z,63.29
2018-09-19T03:13:36.753Z,63.30
2018-09-19T03:18:42.145Z,62.93
2018-09-19T03:23:45.214Z,63.41
2018-09-19T03:28:48.429Z,63.53
2018-09-19T03:33:52.268Z,63.48
2018-09-19T03:38:56.530Z,63.53
2018-09-19T03:44:00.390Z,64.15
2018-09-19T03:49:03.967Z,64.00
2018-09-19T03:54:07.381Z,64.46
2018-09-19T03:59:10.382Z,62.56
2018-09-19T04:04:13.377Z,63.45
2018-09-19T04:09:16.396Z,63.88
2018-09-19T04:14:19.415Z,64.06
2018-09-19T04:19:23.229Z,63.77
2018-09-19T04:24:28.240Z,64.22
2018-09-19T04:29:32.521Z,64.55
2018-09-19T04:34:36.144Z,64.52
2018-09-19T04:39:39.266Z,64.99
2018-09-19T04:44:42.300Z,64.79
2018-09-19T04:49:45.296Z,65.04
2018-09-19T04:54:48.931Z,65.80
2018-09-19T04:59:53.059Z,65.90
2018-09-19T05:04:57.633Z,65.83
2018-09-19T05:10:01.264Z,65.94
2018-09-19T05:15:05.140Z,65.45
2018-09-19T05:20:08.456Z,65.57
2018-09-19T05:25:11.494Z,65.34
2018-09-19T05:30:14.836Z,65.60
2018-09-19T05:35:17.854Z,65.59
2018-09-19T05:40:20.877Z,65.55
2018-09-19T05:45:25.300Z,65.70
2018-09-19T05:50:30.433Z,65.52
2018-09-19T05:55:36.211Z,65.34
2018-09-19T06:00:39.563Z,64.84
2018-09-19T06:05:42.674Z,64.42
2018-09-19T06:10:45.748Z,63.92
2018-09-19T06:15:48.821Z,63.23
2018-09-19T06:20:51.837Z,63.09
2018-09-19T06:25:56.484Z,63.16
2018-09-19T06:31:00.346Z,62.68
2018-09-19T06:36:04.044Z,62.62
2018-09-19T06:41:07.225Z,62.63
2018-09-19T06:46:10.294Z,62.77
2018-09-19T06:51:13.301Z,62.47
2018-09-19T06:56:16.415Z,62.38
2018-09-19T07:01:19.587Z,62.25
2018-09-19T07:06:23.374Z,62.36
2018-09-19T07:11:28.107Z,61.34
2018-09-19T07:16:31.744Z,60.80
2018-09-19T07:21:35.350Z,60.19
2018-09-19T07:26:38.465Z,60.03
2018-09-19T07:31:41.929Z,59.33
2018-09-19T07:36:45.198Z,58.65
2018-09-19T07:41:49.803Z,58.46
2018-09-19T07:46:55.686Z,57.54
2018-09-19T07:52:01.321Z,56.94
2018-09-19T07:57:07.024Z,55.96
2018-09-19T08:02:11.309Z,55.01
2018-09-19T08:07:15.740Z,54.84
2018-09-19T08:12:20.101Z,54.12
2018-09-19T08:17:26.859Z,53.79
2018-09-19T08:22:32.711Z,52.78
2018-09-19T08:27:37.366Z,52.55
2018-09-19T08:32:41.646Z,52.12
2018-09-19T08:37:44.707Z,51.53
2018-09-19T08:42:47.822Z,51.03
2018-09-19T08:47:50.832Z,49.85
2018-09-19T08:52:54.682Z,49.85
2018-09-19T08:57:59.340Z,49.54
2018-09-19T09:03:02.832Z,48.41
2018-09-19T09:08:05.768Z,47.83
2018-09-19T09:13:08.831Z,47.72
2018-09-19T09:18:11.866Z,47.42
2018-09-19T09:23:14.910Z,46.69
2018-09-19T09:28:17.955Z,47.11
2018-09-19T09:33:21.014Z,46.67
2018-09-19T09:38:27.425Z,47.08
2018-09-19T09:43:31.269Z,46.61
2018-09-19T09:48:34.453Z,47.63
2018-09-19T09:53:37.493Z,47.45
2018-09-19T09:58:40.474Z,47.16
2018-09-19T10:03:43.449Z,46.61
2018-09-19T10:08:46.527Z,47.35
2018-09-19T10:13:49.598Z,46.67
2018-09-19T10:18:53.063Z,46.69
2018-09-19T10:23:57.126Z,45.84
2018-09-19T10:29:02.074Z,46.14
2018-09-19T10:34:05.312Z,45.30
2018-09-19T10:39:08.346Z,44.79
2018-09-19T10:44:11.985Z,45.06
2018-09-19T10:49:15.383Z,45.21
2018-09-19T10:54:18.415Z,44.47
2018-09-19T10:59:21.517Z,44.35
2018-09-19T11:04:25.561Z,44.57
2018-09-19T11:09:30.152Z,45.26
2018-09-19T11:14:33.401Z,44.54
2018-09-19T11:19:36.411Z,43.94
2018-09-19T11:24:39.443Z,44.27
2018-09-19T11:29:42.532Z,43.15
2018-09-19T11:34:45.651Z,43.60
2018-09-19T11:39:48.719Z,42.74
2018-09-19T11:44:52.097Z,43.20
2018-09-19T11:49:56.745Z,43.10
2018-09-19T11:55:00.107Z,43.14
2018-09-19T12:00:03.667Z,42.88
2018-09-19T12:05:06.815Z,43.13
2018-09-19T12:10:09.831Z,42.18
2018-09-19T12:15:12.845Z,42.34
2018-09-19T12:20:15.905Z,41.38
2018-09-19T12:25:18.923Z,41.73
2018-09-19T12:30:21.934Z,41.34
2018-09-19T12:35:26.098Z,42.05
2018-09-19T12:40:30.043Z,41.92
2018-09-19T12:45:33.623Z,41.57
2018-09-19T12:50:36.672Z,41.31
2018-09-19T12:55:40.051Z,40.64
2018-09-19T13:00:43.062Z,39.89
2018-09-19T13:05:46.094Z,39.22
2018-09-19T13:10:49.258Z,39.54
2018-09-19T13:15:52.326Z,40.02
2018-09-19T13:20:56.214Z,39.70
2018-09-19T13:25:59.667Z,39.09
2018-09-19T13:31:03.112Z,39.53
2018-09-19T13:36:06.291Z,39.89
2018-09-19T13:41:11.755Z,39.34
2018-09-19T13:46:14.853Z,39.55
2018-09-19T13:51:23.893Z,39.83
2018-09-19T13:56:27.724Z,39.18
2018-09-19T14:01:31.762Z,39.05
2018-09-19T14:06:35.218Z,39.03
2018-09-19T14:11:38.656Z,39.55
2018-09-19T14:16:41.758Z,39.94
2018-09-19T14:21:44.910Z,39.92
2018-09-19T14:26:47.995Z,39.10
2018-09-19T14:31:56.994Z,38.75
2018-09-19T14:37:01.864Z,38.98
2018-09-19T14:42:08.062Z,38.62
2018-09-19T14:47:13.290Z,38.48
2018-09-19T14:52:18.984Z,38.83
2018-09-19T14:57:22.132Z,38.53
2018-09-19T15:02:26.251Z,38.58
2018-09-19T15:07:29.303Z,38.33
2018-09-19T15:12:32.327Z,38.45
2018-09-19T15:17:36.172Z,38.69
2018-09-19T15:22:41.551Z,38.86
2018-09-19T15:27:49.000Z,38.51
2018-09-19T15:32:52.874Z,38.92
2018-09-19T15:37:56.395Z,38.84
2018-09-19T15:42:59.400Z,39.22
2018-09-19T15:48:02.466Z,38.83
2018-09-19T15:53:05.619Z,38.40
2018-09-19T15:58:09.134Z,39.21
2018-09-19T16:03:14.563Z,39.50
2018-09-19T16:08:21.666Z,39.32
2018-09-19T16:13:24.698Z,40.18
2018-09-19T16:18:27.735Z,40.48
2018-09-19T16:23:30.731Z,41.04
2018-09-19T16:28:34.337Z,41.43
2018-09-19T16:33:39.610Z,41.24
2018-09-19T16:38:42.825Z,41.72
2018-09-19T16:43:46.701Z,41.64
2018-09-19T16:48:49.819Z,41.81
2018-09-19T16:53:54.408Z,42.04
2018-09-19T16:59:00.569Z,42.42
2018-09-19T17:04:04.882Z,43.34
2018-09-19T17:09:08.944Z,43.07
2018-09-19T17:14:12.512Z,43.60
2018-09-19T17:19:15.566Z,43.90
2018-09-19T17:24:18.879Z,44.99
2018-09-19T17:29:24.988Z,44.65
2018-09-19T17:34:33.582Z,45.10
2018-09-19T17:39:38.534Z,44.99
2018-09-19T17:44:41.649Z,45.21
2018-09-19T17:49:44.896Z,45.87
2018-09-19T17:54:47.950Z,46.04
2018-09-19T17:59:51.814Z,46.55
2018-09-19T18:04:58.392Z,46.78
2018-09-19T18:10:02.361Z,46.61
2018-09-19T18:15:05.864Z,47.29
2018-09-19T18:20:08.926Z,46.89
2018-09-19T18:25:12.022Z,46.99
2018-09-19T18:30:15.139Z,47.30
2018-09-19T18:48:48.355Z,48.95
2018-09-19T18:53:52.389Z,49.01
2018-09-19T18:58:56.117Z,48.86
2018-09-19T19:03:59.970Z,49.69
2018-09-19T19:09:05.597Z,49.32
2018-09-19T19:14:09.657Z,49.42
2018-09-19T19:19:13.600Z,50.06
2018-09-19T19:24:17.988Z,49.46
2018-09-19T19:29:21.589Z,50.28
2018-09-19T19:34:25.303Z,49.76
2018-09-19T19:39:28.875Z,49.95
2018-09-19T19:44:32.674Z,50.76
2018-09-19T19:49:36.629Z,50.46
2018-09-19T19:54:39.802Z,51.14
2018-09-19T19:59:42.842Z,50.62
2018-09-19T20:04:45.951Z,50.89
2018-09-19T20:09:49.080Z,50.12
2018-09-19T20:14:52.184Z,50.39
2018-09-19T20:19:55.363Z,50.42
2018-09-19T20:24:58.459Z,49.66
2018-09-19T20:30:01.763Z,49.80
2018-09-19T20:35:05.057Z,49.80
2018-09-19T20:40:08.152Z,50.03
2018-09-19T20:45:11.423Z,50.23
2018-09-19T20:50:14.464Z,49.94
2018-09-19T20:55:17.540Z,50.39
2018-09-19T21:00:20.582Z,50.96
2018-09-19T21:05:23.687Z,51.05
2018-09-19T21:10:26.803Z,51.20
2018-09-19T21:15:29.963Z,52.20
2018-09-19T21:20:33.071Z,52.22
2018-09-19T21:25:36.234Z,51.84
2018-09-19T21:30:39.316Z,51.75
2018-09-19T21:35:42.374Z,52.37
2018-09-19T21:40:45.487Z,52.49
2018-09-19T21:45:48.763Z,52.96
2018-09-19T21:50:51.869Z,52.93
2018-09-19T21:55:54.932Z,52.56
2018-09-19T22:01:03.706Z,53.15
2018-09-19T22:06:07.043Z,53.52
2018-09-19T22:11:10.142Z,53.26
2018-09-19T22:16:13.231Z,53.51
2018-09-19T22:21:16.278Z,53.92
2018-09-19T22:26:19.366Z,53.90
2018-09-19T22:31:22.431Z,54.46
2018-09-19T22:36:25.503Z,54.85
2018-09-19T22:41:28.611Z,54.42
2018-09-19T22:46:31.675Z,54.54
2018-09-19T22:51:34.735Z,54.84
2018-09-19T22:56:37.770Z,54.86
2018-09-19T23:01:40.853Z,54.87
2018-09-19T23:06:43.851Z,54.87
2018-09-19T23:11:46.915Z,54.56
2018-09-19T23:16:49.969Z,55.01
2018-09-19T23:21:53.080Z,54.80
2018-09-19T23:26:56.147Z,55.61
2018-09-19T23:31:59.261Z,55.78
2018-09-19T23:37:02.330Z,56.33
2018-09-19T23:42:05.552Z,56.46
2018-09-19T23:47:08.665Z,56.71
2018-09-19T23:52:11.718Z,56.26
2018-09-19T23:57:14.798Z,56.85
